Time;durP1;ratioP1;P1;durP2;ratioP2;P2;SDS_P1;SDS_P2;PMS_P1;PMS_P2;Temp;Humidity;BMP_temperature;BMP_pressure;BME280_temperature;BME280_humidity;BME280_pressure;Samples;Min_cycle;Max_cycle;Signal;HPM_P1;HPM_P2
2022/08/24 00:01:14;;;;;;;13.63;9.68;;;;;;;23.12;94.01;99644.97;5047100;28;20032;-35
2022/08/24 00:03:40;;;;;;;12.75;9.48;;;;;;;22.85;93.55;99635.84;5065601;28;20032;-36
2022/08/24 00:06:09;;;;;;;13.63;10.10;;;;;;;22.34;96.05;99647.97;5049977;28;20533;-31
2022/08/24 00:08:36;;;;;;;14.25;10.70;;;;;;;22.23;96.68;99652.00;5050840;28;20060;-32
2022/08/24 00:11:02;;;;;;;16.30;9.83;;;;;;;21.43;100.00;99625.22;5050818;28;20097;-33
2022/08/24 00:13:27;;;;;;;14.38;10.10;;;;;;;21.31;100.00;99656.59;5068944;28;20032;-37
2022/08/24 00:15:53;;;;;;;18.85;11.10;;;;;;;21.39;100.00;99666.75;5068575;28;20032;-35
2022/08/24 00:18:19;;;;;;;18.33;11.02;;;;;;;21.34;100.00;99664.94;5050606;28;20028;-31
2022/08/24 00:20:45;;;;;;;13.65;10.30;;;;;;;21.28;100.00;99666.94;5068621;28;20024;-37
2022/08/24 00:23:11;;;;;;;15.25;10.23;;;;;;;20.92;100.00;99638.88;5050712;28;20032;-34
2022/08/24 00:25:37;;;;;;;15.18;10.00;;;;;;;20.89;100.00;99648.41;5050438;28;20025;-32
2022/08/24 00:28:04;;;;;;;16.55;9.80;;;;;;;21.07;100.00;99665.72;5068311;28;20039;-39
2022/08/24 00:30:30;;;;;;;13.98;10.02;;;;;;;21.15;100.00;99667.75;5050347;28;20056;-33
2022/08/24 00:32:56;;;;;;;13.43;9.23;;;;;;;20.89;100.00;99663.88;5050549;28;20419;-32
2022/08/24 00:35:23;;;;;;;14.70;10.10;;;;;;;20.89;100.00;99659.25;5050519;28;20025;-33
2022/08/24 00:37:50;;;;;;;15.03;10.30;;;;;;;20.84;100.00;99643.91;5050400;28;20372;-33
2022/08/24 00:40:22;;;;;;;15.75;11.18;;;;;;;20.80;100.00;99642.88;5050435;28;20090;-31
2022/08/24 00:42:49;;;;;;;16.83;10.65;;;;;;;21.04;100.00;99656.28;5049960;28;20416;-31
2022/08/24 00:45:16;;;;;;;15.93;11.07;;;;;;;20.99;100.00;99652.84;5068531;28;20036;-31
2022/08/24 00:47:56;;;;;;;18.05;12.35;;;;;;;21.09;100.00;99647.25;5050032;28;20286;-35
2022/08/24 00:50:27;;;;;;;17.65;11.15;;;;;;;21.10;100.00;99656.19;5050350;28;20123;-34
2022/08/24 00:53:01;;;;;;;16.33;11.57;;;;;;;21.08;100.00;99645.63;5050034;28;20020;-30
2022/08/24 00:55:32;;;;;;;15.60;10.88;;;;;;;20.81;100.00;99658.03;5049869;28;20071;-36
2022/08/24 00:58:06;;;;;;;16.30;12.43;;;;;;;20.80;100.00;99656.44;5049706;28;20131;-34
2022/08/24 01:00:39;;;;;;;14.93;11.25;;;;;;;20.81;100.00;99655.31;5050250;28;20092;-31
2022/08/24 01:03:05;;;;;;;17.10;12.20;;;;;;;20.71;100.00;99652.78;5049730;28;20557;-36
2022/08/24 01:05:32;;;;;;;16.60;11.88;;;;;;;21.00;100.00;99660.69;5049769;28;20101;-31
2022/08/24 01:07:59;;;;;;;16.08;11.55;;;;;;;21.22;100.00;99665.44;5049383;28;20028;-31
2022/08/24 01:10:31;;;;;;;16.23;11.38;;;;;;;20.95;100.00;99652.66;5067848;28;20020;-32
2022/08/24 01:13:00;;;;;;;16.48;12.32;;;;;;;21.06;100.00;99670.34;5049763;28;20036;-31
2022/08/24 01:15:31;;;;;;;18.13;12.90;;;;;;;20.84;100.00;99676.41;5049105;28;20039;-31
2022/08/24 01:20:47;;;;;;;16.92;12.18;;;;;;;21.06;100.00;99674.94;5067908;28;20498;-30
2022/08/24 01:23:31;;;;;;;19.55;12.45;;;;;;;21.01;100.00;99677.75;5049454;28;20479;-29
2022/08/24 01:25:56;;;;;;;16.83;11.80;;;;;;;20.83;100.00;99661.25;5067297;28;20111;-34
2022/08/24 01:28:23;;;;;;;20.50;12.73;;;;;;;20.88;100.00;99668.47;5067249;28;20531;-30
2022/08/24 01:30:48;;;;;;;19.95;13.23;;;;;;;20.74;100.00;99663.03;5067218;28;20099;-31
2022/08/24 01:33:27;;;;;;;18.20;12.63;;;;;;;21.22;100.00;99684.41;5067476;28;20135;-30
2022/08/24 01:36:01;;;;;;;17.58;12.10;;;;;;;21.24;100.00;99686.84;5067369;28;20021;-31
2022/08/24 01:38:27;;;;;;;17.58;11.15;;;;;;;21.20;100.00;99691.25;5049138;28;20101;-32
2022/08/24 01:40:56;;;;;;;16.52;12.18;;;;;;;21.07;100.00;99682.00;5066990;28;20024;-33
2022/08/24 01:43:23;;;;;;;16.63;11.93;;;;;;;21.30;100.00;99696.50;5048577;28;20035;-32
2022/08/24 01:45:49;;;;;;;18.80;11.90;;;;;;;21.20;100.00;99702.91;5067216;28;20032;-31
2022/08/24 01:48:15;;;;;;;15.82;11.60;;;;;;;21.25;100.00;99700.09;5048299;28;20210;-33
2022/08/24 01:50:41;;;;;;;16.40;11.32;;;;;;;21.37;100.00;99696.91;5066870;28;20123;-30
2022/08/24 01:53:07;;;;;;;18.95;12.15;;;;;;;21.72;99.05;99691.09;5066833;28;20039;-31
2022/08/24 01:55:33;;;;;;;14.93;11.75;;;;;;;21.75;98.31;99693.22;5048575;28;20115;-34
2022/08/24 01:57:59;;;;;;;15.23;11.05;;;;;;;21.64;98.01;99707.00;5048090;28;20028;-31
2022/08/24 02:00:25;;;;;;;15.95;11.65;;;;;;;21.35;99.31;99715.41;5066572;28;20027;-31
2022/08/24 02:02:51;;;;;;;17.02;11.73;;;;;;;21.14;99.96;99693.25;5048505;28;20545;-31
2022/08/24 02:05:17;;;;;;;20.42;14.27;;;;;;;21.21;97.59;99712.66;5048528;28;20040;-32
2022/08/24 02:07:42;;;;;;;20.65;14.02;;;;;;;20.93;99.65;99708.25;5066610;28;20028;-33
2022/08/24 02:10:10;;;;;;;17.65;13.25;;;;;;;20.91;100.00;99696.91;5048062;28;20024;-34
2022/08/24 02:12:39;;;;;;;16.83;12.00;;;;;;;20.85;100.00;99713.25;5066413;28;20030;-30
2022/08/24 02:15:07;;;;;;;15.25;11.63;;;;;;;20.78;100.00;99718.25;5048502;28;20032;-32
2022/08/24 02:17:34;;;;;;;20.88;12.50;;;;;;;20.70;100.00;99720.81;5066381;28;20028;-32
2022/08/24 02:20:00;;;;;;;21.38;13.20;;;;;;;20.68;100.00;99718.41;5066271;28;20032;-30
2022/08/24 02:22:26;;;;;;;20.88;13.13;;;;;;;20.63;100.00;99699.50;5047892;28;20036;-34
2022/08/24 02:24:52;;;;;;;22.08;14.13;;;;;;;20.58;100.00;99707.69;5048189;28;20097;-34
2022/08/24 02:27:17;;;;;;;21.65;14.25;;;;;;;20.50;100.00;99698.31;5065308;28;20573;-38
2022/08/24 02:29:43;;;;;;;18.85;12.70;;;;;;;20.57;100.00;99708.78;5066249;28;20040;-33
2022/08/24 02:32:11;;;;;;;21.65;13.27;;;;;;;20.39;100.00;99722.06;5047662;28;20032;-30
2022/08/24 02:34:37;;;;;;;19.33;12.77;;;;;;;20.29;100.00;99711.38;5047975;28;20404;-31
2022/08/24 02:37:04;;;;;;;16.73;12.48;;;;;;;20.34;100.00;99708.56;5047759;28;20121;-35
2022/08/24 02:39:30;;;;;;;17.80;13.15;;;;;;;19.96;100.00;99708.53;5047536;28;20021;-37
2022/08/24 02:41:56;;;;;;;18.55;14.40;;;;;;;19.85;100.00;99717.88;5047613;28;20111;-37
2022/08/24 02:44:21;;;;;;;22.17;15.35;;;;;;;19.70;100.00;99707.22;5047486;28;20174;-35
2022/08/24 02:46:47;;;;;;;19.67;14.10;;;;;;;19.65;100.00;99706.16;5065832;28;20067;-31
2022/08/24 02:49:13;;;;;;;22.83;14.80;;;;;;;19.45;100.00;99701.78;5047732;28;20060;-30
2022/08/24 02:51:43;;;;;;;20.35;14.30;;;;;;;19.45;100.00;99712.59;5065909;28;20048;-33
2022/08/24 02:54:09;;;;;;;19.00;14.23;;;;;;;19.37;100.00;99707.00;5047411;28;20102;-33
2022/08/24 02:56:34;;;;;;;27.25;14.27;;;;;;;19.36;100.00;99703.50;5065852;28;20545;-31
2022/08/24 02:59:00;;;;;;;23.48;14.30;;;;;;;19.62;100.00;99714.84;5066147;28;20029;-30
2022/08/24 03:01:27;;;;;;;23.42;15.13;;;;;;;19.42;100.00;99702.34;5065793;28;20039;-29
2022/08/24 03:03:54;;;;;;;18.80;14.23;;;;;;;19.44;100.00;99716.38;5047564;28;20023;-41
2022/08/24 03:06:19;;;;;;;21.70;13.88;;;;;;;19.42;100.00;99705.06;5047510;28;20283;-30
2022/08/24 03:08:45;;;;;;;20.60;14.68;;;;;;;19.64;100.00;99712.66;5065406;28;20035;-29
2022/08/24 03:11:11;;;;;;;19.88;13.98;;;;;;;19.54;100.00;99718.19;5065606;28;20052;-29
2022/08/24 03:13:38;;;;;;;19.02;13.25;;;;;;;19.48;100.00;99703.09;5047572;28;20033;-34
2022/08/24 03:16:05;;;;;;;20.85;14.13;;;;;;;19.54;100.00;99718.19;5047273;28;20089;-32
2022/08/24 03:18:31;;;;;;;20.67;14.55;;;;;;;19.46;100.00;99718.81;5047458;28;20043;-33
2022/08/24 03:20:59;;;;;;;21.20;13.18;;;;;;;19.38;100.00;99697.81;5047457;28;20127;-33
2022/08/24 03:23:26;;;;;;;19.50;13.27;;;;;;;19.31;100.00;99705.44;5047240;28;20083;-30
2022/08/24 03:25:53;;;;;;;22.65;14.30;;;;;;;19.33;100.00;99716.75;5047182;28;20768;-31
2022/08/24 03:28:22;;;;;;;20.92;13.57;;;;;;;19.31;100.00;99700.03;5047319;28;20119;-32
2022/08/24 03:30:49;;;;;;;20.92;14.23;;;;;;;19.44;100.00;99718.28;5047264;28;20055;-34
2022/08/24 03:33:15;;;;;;;22.02;13.70;;;;;;;19.35;100.00;99712.72;5047359;28;20064;-40
2022/08/24 03:35:40;;;;;;;18.20;12.82;;;;;;;19.58;100.00;99723.84;5047394;28;20067;-29
2022/08/24 03:38:06;;;;;;;17.55;12.18;;;;;;;19.70;100.00;99710.72;5064978;28;20043;-33
2022/08/24 03:40:32;;;;;;;21.83;13.35;;;;;;;19.73;100.00;99731.00;5069392;28;20063;-30
2022/08/24 03:42:58;;;;;;;20.90;13.82;;;;;;;19.96;100.00;99734.78;5069395;28;20040;-31
2022/08/24 03:45:25;;;;;;;21.90;12.48;;;;;;;19.89;100.00;99729.72;5050946;28;20040;-30
2022/08/24 03:47:51;;;;;;;17.23;12.10;;;;;;;20.06;100.00;99724.66;5050951;28;20650;-35
2022/08/24 03:50:19;;;;;;;16.83;11.63;;;;;;;20.17;100.00;99735.34;5050577;28;20047;-32
2022/08/24 03:52:44;;;;;;;17.73;11.88;;;;;;;20.10;100.00;99734.88;5069344;28;20032;-30
2022/08/24 03:55:10;;;;;;;16.48;11.20;;;;;;;20.39;100.00;99718.50;5068854;28;20127;-32
2022/08/24 03:57:36;;;;;;;17.42;11.55;;;;;;;20.37;100.00;99724.25;5068996;28;20029;-30
2022/08/24 04:00:04;;;;;;;17.58;11.82;;;;;;;20.00;100.00;99719.56;5068460;28;20040;-29
2022/08/24 04:02:29;;;;;;;;;;;;;;;20.13;100.00;99731.63;5051103;28;20033;-34
2022/08/24 04:04:54;;;;;;;16.00;11.23;;;;;;;20.22;100.00;99732.56;5050451;28;19923;-33
2022/08/24 04:07:20;;;;;;;16.23;12.23;;;;;;;19.98;100.00;99721.75;5068935;28;20032;-31
2022/08/24 04:09:46;;;;;;;18.05;12.45;;;;;;;19.86;100.00;99725.72;5068693;28;20020;-30
2022/08/24 04:12:11;;;;;;;19.38;12.85;;;;;;;19.74;100.00;99710.97;5068464;28;20032;-30
2022/08/24 04:14:37;;;;;;;20.98;13.52;;;;;;;19.67;100.00;99713.97;5068653;28;20021;-30
2022/08/24 04:17:03;;;;;;;19.38;13.00;;;;;;;19.63;100.00;99711.03;5068660;28;20109;-33
2022/08/24 04:19:29;;;;;;;17.23;12.75;;;;;;;19.61;100.00;99726.75;5068627;28;20028;-31
2022/08/24 04:21:56;;;;;;;18.40;13.05;;;;;;;19.73;100.00;99726.38;5068872;28;20103;-30
2022/08/24 04:24:22;;;;;;;18.60;12.82;;;;;;;19.84;100.00;99718.97;5050547;28;20028;-31
2022/08/24 04:26:47;;;;;;;22.05;12.98;;;;;;;20.05;100.00;99731.16;5068384;28;20545;-31
2022/08/24 04:29:15;;;;;;;21.60;13.30;;;;;;;19.93;100.00;99733.47;5050715;28;20037;-31
2022/08/24 04:31:42;;;;;;;24.17;13.73;;;;;;;19.98;100.00;99732.59;5068648;28;20056;-31
2022/08/24 04:34:08;;;;;;;20.00;13.73;;;;;;;20.06;100.00;99723.81;5049709;28;20127;-33
2022/08/24 04:36:34;;;;;;;22.45;13.15;;;;;;;20.15;100.00;99732.13;5050219;28;20036;-31
2022/08/24 04:39:01;;;;;;;22.25;13.57;;;;;;;20.15;100.00;99734.84;5050116;28;20540;-30
2022/08/24 04:41:26;;;;;;;18.33;13.85;;;;;;;20.06;100.00;99734.66;5049974;28;20029;-34
2022/08/24 04:43:52;;;;;;;19.15;13.52;;;;;;;20.35;100.00;99742.69;5067807;28;20028;-29
2022/08/24 04:46:19;;;;;;;23.75;14.88;;;;;;;20.38;100.00;99752.94;5049464;28;20036;-38
2022/08/24 04:48:47;;;;;;;18.17;12.80;;;;;;;20.19;100.00;99760.22;5049570;28;20165;-30
2022/08/24 04:51:16;;;;;;;18.27;12.80;;;;;;;20.16;100.00;99749.97;5049314;28;20098;-35
2022/08/24 04:53:43;;;;;;;18.65;14.18;;;;;;;20.21;100.00;99752.63;5067856;28;20020;-30
2022/08/24 04:56:18;;;;;;;21.23;14.65;;;;;;;20.24;100.00;99747.41;5049418;28;20024;-32
2022/08/24 04:58:44;;;;;;;20.33;14.52;;;;;;;20.25;100.00;99754.47;5049456;28;20781;-31
2022/08/24 05:01:14;;;;;;;23.15;14.55;;;;;;;20.29;100.00;99760.09;5049692;28;20037;-33
2022/08/24 05:03:43;;;;;;;19.13;13.80;;;;;;;20.32;100.00;99759.50;5049847;28;20032;-31
2022/08/24 05:06:10;;;;;;;20.35;13.95;;;;;;;20.25;100.00;99761.78;5049396;28;20029;-31
2022/08/24 05:08:36;;;;;;;18.55;14.75;;;;;;;20.24;100.00;99760.16;5049858;28;20029;-32
2022/08/24 05:11:07;;;;;;;22.98;15.23;;;;;;;20.41;100.00;99763.19;5067811;28;20484;-29
2022/08/24 05:13:33;;;;;;;20.58;14.93;;;;;;;20.37;100.00;99750.50;5049343;28;20055;-35
2022/08/24 05:15:59;;;;;;;21.02;15.02;;;;;;;20.44;100.00;99768.00;5049158;28;20101;-33
2022/08/24 05:18:28;;;;;;;20.15;15.05;;;;;;;20.67;100.00;99762.84;5067500;28;20235;-34
2022/08/24 05:20:54;;;;;;;20.55;14.93;;;;;;;20.74;100.00;99754.34;5049278;28;20089;-32
2022/08/24 05:23:21;;;;;;;24.20;15.43;;;;;;;20.64;100.00;99761.53;5049145;28;20499;-33
2022/08/24 05:25:47;;;;;;;27.90;16.65;;;;;;;20.61;100.00;99766.72;5067210;28;20028;-34
2022/08/24 05:28:13;;;;;;;24.00;15.65;;;;;;;20.49;100.00;99769.84;5048846;28;20025;-34
2022/08/24 05:30:38;;;;;;;23.48;15.05;;;;;;;20.40;100.00;99772.41;5067183;28;20082;-37
2022/08/24 05:33:03;;;;;;;23.38;16.00;;;;;;;20.55;100.00;99767.88;5067498;28;20024;-30
2022/08/24 05:35:29;;;;;;;26.00;17.30;;;;;;;20.67;100.00;99762.84;5067286;28;20121;-29
2022/08/24 05:37:54;;;;;;;23.58;16.25;;;;;;;20.96;100.00;99761.88;5067318;28;20109;-30
2022/08/24 05:40:20;;;;;;;24.70;16.08;;;;;;;21.17;100.00;99768.59;5066782;28;20487;-34
2022/08/24 05:42:47;;;;;;;20.55;15.52;;;;;;;21.19;100.00;99760.97;5066805;28;20462;-30
2022/08/24 05:45:12;;;;;;;23.02;17.13;;;;;;;21.12;100.00;99757.81;5067013;28;20040;-36
2022/08/24 05:47:38;;;;;;;24.77;16.65;;;;;;;21.16;100.00;99772.38;5066715;28;20432;-32
2022/08/24 05:50:04;;;;;;;21.67;15.30;;;;;;;21.29;100.00;99776.25;5066734;28;20036;-32
2022/08/24 05:52:30;;;;;;;24.98;15.95;;;;;;;21.37;100.00;99761.19;5048645;28;20794;-30
2022/08/24 05:54:58;;;;;;;22.08;15.98;;;;;;;21.53;100.00;99764.47;5066895;28;20039;-30
2022/08/24 05:57:25;;;;;;;26.08;15.88;;;;;;;21.52;100.00;99757.44;5066156;28;20020;-30
2022/08/24 05:59:50;;;;;;;20.77;15.63;;;;;;;21.64;100.00;99761.28;5048891;28;20940;-30
2022/08/24 06:02:17;;;;;;;19.58;14.20;;;;;;;21.69;100.00;99773.13;5065533;28;20112;-34
2022/08/24 06:04:43;;;;;;;21.48;15.68;;;;;;;21.61;100.00;99758.34;5048393;28;20027;-32
2022/08/24 06:07:10;;;;;;;20.70;14.82;;;;;;;21.82;100.00;99766.91;5048160;28;20024;-30
2022/08/24 06:09:37;;;;;;;21.33;14.25;;;;;;;21.57;100.00;99750.00;5048106;28;20634;-30
2022/08/24 06:12:03;;;;;;;21.10;14.80;;;;;;;21.47;100.00;99750.19;5066086;28;20849;-31
2022/08/24 06:14:28;;;;;;;22.00;14.00;;;;;;;21.60;100.00;99757.56;5048269;28;20025;-32
2022/08/24 06:16:54;;;;;;;18.83;14.65;;;;;;;21.80;100.00;99758.25;5066754;28;20064;-32
2022/08/24 06:19:20;;;;;;;24.33;15.52;;;;;;;21.88;100.00;99760.25;5048187;28;20047;-32
2022/08/24 06:21:50;;;;;;;21.05;14.52;;;;;;;21.67;100.00;99766.09;5048230;28;20412;-30
2022/08/24 06:24:16;;;;;;;20.27;14.45;;;;;;;21.79;100.00;99756.66;5047772;28;20028;-36
2022/08/24 06:29:28;;;;;;;16.55;13.55;;;;;;;22.09;100.00;99782.41;5066014;28;20412;-33
2022/08/24 06:31:54;;;;;;;15.88;12.88;;;;;;;22.36;100.00;99768.00;5066135;28;20040;-30
2022/08/24 06:34:21;;;;;;;16.65;12.68;;;;;;;22.67;99.79;99770.03;5031073;28;20031;-30
2022/08/24 06:36:47;;;;;;;20.05;12.20;;;;;;;22.98;98.37;99766.59;5047906;28;20036;-29
2022/08/24 06:39:13;;;;;;;16.73;11.82;;;;;;;23.06;97.31;99763.19;5066018;28;20020;-35
2022/08/24 06:41:39;;;;;;;16.20;11.50;;;;;;;22.71;96.15;99738.44;5047903;28;20119;-34
2022/08/24 06:44:06;;;;;;;15.90;12.13;;;;;;;22.97;97.50;99767.75;5047666;28;20031;-30
2022/08/24 06:46:32;;;;;;;14.93;10.45;;;;;;;23.12;96.02;99766.59;5047323;28;20607;-32
2022/08/24 06:48:58;;;;;;;14.00;10.73;;;;;;;23.41;95.37;99753.28;5047910;28;20119;-30
2022/08/24 06:51:24;;;;;;;14.02;10.32;;;;;;;23.38;94.08;99755.88;5065751;28;20028;-29
2022/08/24 06:53:50;;;;;;;13.88;10.82;;;;;;;23.46;93.49;99749.66;5065462;28;20020;-31
2022/08/24 06:56:17;;;;;;;13.40;9.90;;;;;;;23.53;92.31;99752.72;5047422;28;20076;-31
2022/08/24 06:58:43;;;;;;;14.75;10.25;;;;;;;23.67;91.28;99769.75;5047738;28;20032;-33
2022/08/24 07:01:19;;;;;;;12.93;9.70;;;;;;;23.94;88.61;99772.63;5047752;28;20082;-33
2022/08/24 07:03:45;;;;;;;16.02;10.10;;;;;;;24.09;90.39;99774.09;5047547;28;20031;-31
2022/08/24 07:06:13;;;;;;;12.60;9.60;;;;;;;23.89;89.63;99765.41;5065172;28;20021;-31
2022/08/24 07:08:41;;;;;;;14.75;10.20;;;;;;;23.89;88.99;99768.13;5065790;28;20025;-29
2022/08/24 07:11:07;;;;;;;13.10;8.63;;;;;;;24.12;87.32;99770.75;5047620;28;20028;-34
2022/08/24 07:13:33;;;;;;;12.98;9.82;;;;;;;24.10;85.71;99792.06;5047840;28;20028;-36
2022/08/24 07:15:59;;;;;;;12.00;9.80;;;;;;;24.06;83.97;99764.66;5051776;28;20032;-30
2022/08/24 07:18:25;;;;;;;16.45;10.23;;;;;;;24.24;84.34;99781.84;5051510;28;20024;-32
2022/08/24 07:20:50;;;;;;;12.80;8.52;;;;;;;24.12;84.88;99762.59;5070045;28;20036;-32
2022/08/24 07:23:17;;;;;;;15.32;9.52;;;;;;;24.15;84.75;99781.00;5051645;28;20415;-31
2022/08/24 07:25:44;;;;;;;12.98;9.25;;;;;;;23.72;83.24;99778.91;5051789;28;20123;-34
2022/08/24 07:28:10;;;;;;;11.00;8.45;;;;;;;23.31;83.88;99771.81;5051321;28;20519;-31
2022/08/24 07:30:37;;;;;;;12.02;9.30;;;;;;;23.35;88.17;99772.78;5051312;28;20032;-30
2022/08/24 07:33:03;;;;;;;13.55;9.15;;;;;;;23.57;85.69;99791.81;5051449;28;20032;-33
2022/08/24 07:35:31;;;;;;;13.82;10.23;;;;;;;23.60;87.90;99796.66;5069056;28;20031;-30
2022/08/24 07:37:57;;;;;;;;;;;;;;;23.60;86.08;99793.09;5069909;28;20025;-34
2022/08/24 07:40:24;;;;;;;16.17;9.82;;;;;;;23.56;85.86;99789.38;5051255;28;19915;-30
2022/08/24 07:42:52;;;;;;;14.13;9.32;;;;;;;23.73;85.28;99794.13;5051394;28;20032;-35
2022/08/24 07:45:18;;;;;;;14.48;9.93;;;;;;;24.01;87.76;99800.22;5050949;28;20036;-33
2022/08/24 07:47:44;;;;;;;13.32;9.80;;;;;;;24.15;86.47;99786.44;5069289;28;20060;-29
2022/08/24 07:50:12;;;;;;;13.35;9.45;;;;;;;24.35;84.19;99788.59;5050772;28;20071;-30
2022/08/24 07:52:37;;;;;;;19.75;13.70;;;;;;;24.33;84.27;99779.94;5051371;28;20102;-32
2022/08/24 07:55:04;;;;;;;13.95;9.73;;;;;;;24.24;85.47;99784.56;5069395;28;20032;-33
2022/08/24 07:57:30;;;;;;;15.05;10.18;;;;;;;24.46;84.74;99778.19;5069137;28;20111;-31
2022/08/24 07:59:58;;;;;;;11.57;9.20;;;;;;;24.57;83.83;99773.25;5068961;28;20108;-31
2022/08/24 08:02:25;;;;;;;12.77;9.32;;;;;;;24.81;81.73;99795.41;5051046;28;20115;-31
2022/08/24 08:04:50;;;;;;;15.48;9.05;;;;;;;24.73;81.84;99787.22;5051132;28;20670;-33
2022/08/24 08:07:16;;;;;;;15.60;9.65;;;;;;;25.03;82.79;99785.47;5069327;28;20033;-34
2022/08/24 08:09:42;;;;;;;11.40;9.05;;;;;;;25.39;79.84;99793.28;5069130;28;20031;-34
2022/08/24 08:12:08;;;;;;;10.98;9.57;;;;;;;25.71;77.57;99785.63;5050596;28;20052;-29
2022/08/24 08:14:34;;;;;;;13.98;10.23;;;;;;;26.00;79.18;99773.97;5068905;28;20021;-30
2022/08/24 08:17:00;;;;;;;15.80;9.10;;;;;;;26.13;75.12;99782.25;5050837;28;20038;-32
2022/08/24 08:19:27;;;;;;;12.55;8.82;;;;;;;25.84;73.69;99776.41;5068580;28;20040;-29
2022/08/24 08:24:39;;;;;;;11.07;8.23;;;;;;;25.78;77.81;99766.81;5068415;28;20035;-31
2022/08/24 08:27:05;;;;;;;10.55;8.52;;;;;;;25.70;77.20;99753.19;5067907;28;20036;-33
2022/08/24 08:29:34;;;;;;;13.00;8.35;;;;;;;25.90;77.36;99763.41;5049957;28;20032;-36
2022/08/24 08:32:00;;;;;;;12.40;8.88;;;;;;;25.48;77.42;99740.59;5050326;28;20447;-32
2022/08/24 08:34:26;;;;;;;11.10;7.95;;;;;;;25.91;77.17;99747.81;5068700;28;20020;-30
2022/08/24 08:36:53;;;;;;;10.90;8.48;;;;;;;25.84;76.87;99751.03;5050443;28;20040;-32
2022/08/24 08:39:20;;;;;;;11.30;8.02;;;;;;;25.88;75.07;99754.72;5050528;28;20135;-38
2022/08/24 08:42:04;;;;;;;;;;;;;;;26.12;77.63;99756.06;5050734;28;20737;-31
2022/08/24 08:44:36;;;;;;;12.00;8.85;;;;;;;26.13;76.07;99761.19;5068030;28;19998;-31
2022/08/24 08:47:22;;;;;;;11.10;8.27;;;;;;;25.84;75.47;99751.03;5049702;28;20056;-29
2022/08/24 08:50:09;;;;;;;12.88;8.63;;;;;;;26.06;75.58;99758.97;5068113;28;20531;-29
2022/08/24 08:52:56;;;;;;;12.30;8.63;;;;;;;26.06;78.45;99760.91;5049559;28;20086;-32
2022/08/24 08:55:44;;;;;;;12.73;9.05;;;;;;;26.38;76.05;99764.13;5068173;28;20194;-30
2022/08/24 08:58:10;;;;;;;11.40;9.00;;;;;;;26.64;77.57;99780.34;5067779;28;20036;-35
2022/08/24 09:01:06;;;;;;;11.18;8.45;;;;;;;26.78;73.45;99782.81;5049406;28;20024;-33
2022/08/24 09:03:58;;;;;;;11.20;8.88;;;;;;;26.73;76.50;99772.88;5067563;28;20032;-30
2022/08/24 09:06:57;;;;;;;10.70;8.07;;;;;;;26.69;73.43;99771.94;5066860;28;20500;-29
2022/08/24 09:09:40;;;;;;;12.32;8.32;;;;;;;26.76;71.46;99782.34;5067658;28;20157;-30
2022/08/24 09:12:51;;;;;;;13.05;7.85;;;;;;;27.28;71.68;99781.06;5049198;28;20056;-34
2022/08/24 09:15:50;;;;;;;10.43;8.48;;;;;;;27.40;68.72;99768.25;5043569;28;20086;-32
2022/08/24 09:18:40;;;;;;;10.55;7.95;;;;;;;27.47;67.56;99758.66;5067359;28;20028;-35
2022/08/24 09:21:44;;;;;;;10.82;7.85;;;;;;;27.54;70.30;99740.50;5067110;28;20160;-31
2022/08/24 09:24:25;;;;;;;10.55;7.82;;;;;;;27.82;66.60;99745.31;5067373;28;20036;-33
2022/08/24 09:27:25;;;;;;;11.73;7.82;;;;;;;27.96;65.85;99736.78;5049518;28;20579;-32
2022/08/24 09:30:05;;;;;;;10.93;7.22;;;;;;;27.80;67.68;99731.16;5048952;28;20029;-29
2022/08/24 09:32:49;;;;;;;9.35;7.28;;;;;;;27.86;66.82;99735.28;5067545;28;20622;-31
2022/08/24 09:35:21;;;;;;;10.00;6.90;;;;;;;28.16;64.36;99716.66;5067540;28;20104;-30
2022/08/24 09:37:47;;;;;;;11.77;8.13;;;;;;;28.56;64.95;99728.81;5048736;28;20427;-41
2022/08/24 09:40:30;;;;;;;10.02;7.00;;;;;;;28.20;64.65;99722.25;5066769;28;20036;-31
2022/08/24 09:43:07;;;;;;;9.80;7.65;;;;;;;28.04;63.92;99694.75;5048792;28;20385;-31
2022/08/24 09:45:58;;;;;;;14.05;7.53;;;;;;;28.15;63.87;99714.25;5048677;28;20032;-32
2022/08/24 09:48:23;;;;;;;10.60;7.43;;;;;;;28.36;64.85;99703.13;5066772;28;20143;-36
2022/08/24 09:51:19;;;;;;;11.43;7.00;;;;;;;28.60;62.76;99703.06;5066882;28;20115;-28
2022/08/24 09:54:16;;;;;;;9.83;6.17;;;;;;;28.88;60.68;99701.47;5025483;28;20127;-31
2022/08/24 09:57:05;;;;;;;11.27;6.85;;;;;;;28.95;60.96;99701.66;5066852;28;20476;-31
2022/08/24 10:00:04;;;;;;;10.13;6.32;;;;;;;28.80;59.58;99695.78;5048720;28;20097;-33
2022/08/24 10:02:54;;;;;;;10.77;6.20;;;;;;;28.64;58.36;99675.75;5048504;28;20028;-31
2022/08/24 10:05:47;;;;;;;13.43;6.82;;;;;;;28.86;62.63;99688.09;5048164;28;20025;-33
2022/08/24 10:08:32;;;;;;;8.75;6.07;;;;;;;29.10;58.39;99692.66;5066326;28;20111;-29
2022/08/24 10:11:10;;;;;;;9.90;6.10;;;;;;;28.99;58.21;99688.81;5048634;28;20031;-31
2022/08/24 10:14:05;;;;;;;8.65;5.55;;;;;;;28.99;56.74;99686.06;5048171;28;20032;-30
2022/08/24 10:16:59;;;;;;;9.02;6.03;;;;;;;28.93;57.95;99684.75;5048330;28;20024;-33
2022/08/24 10:19:55;;;;;;;8.32;5.20;;;;;;;29.42;59.56;99678.94;5048181;28;20169;-32
2022/08/24 10:22:45;;;;;;;11.48;5.95;;;;;;;29.40;57.06;99679.31;5066440;28;20020;-32
2022/08/24 10:26:04;;;;;;;11.45;6.00;;;;;;;29.77;55.73;99680.97;5066194;28;20047;-29
2022/08/24 10:28:41;;;;;;;9.55;5.70;;;;;;;29.98;57.32;99686.19;5003461;28;20037;-30
2022/08/24 10:31:09;;;;;;;11.85;5.90;;;;;;;30.21;55.91;99686.28;5039848;28;20055;-32
2022/08/24 10:33:34;;;;;;;12.02;6.43;;;;;;;30.21;56.28;99683.53;5047698;28;20024;-30
2022/08/24 10:36:29;;;;;;;10.40;6.18;;;;;;;30.45;55.93;99679.72;5065908;28;20036;-29
2022/08/24 10:45:40;;;;;;;12.48;6.35;;;;;;;30.36;56.68;99673.63;5066151;28;20121;-31
2022/08/24 10:48:40;;;;;;;10.73;6.90;;;;;;;30.25;55.84;99670.63;5065193;28;20072;-33
2022/08/24 10:51:27;;;;;;;9.23;5.60;;;;;;;29.95;55.89;99673.13;5033168;28;20116;-29
2022/08/24 10:53:55;;;;;;;10.45;5.70;;;;;;;30.23;52.84;99654.50;5066034;28;20113;-33
2022/08/24 10:56:28;;;;;;;12.90;6.80;;;;;;;30.57;54.25;99645.75;5047974;28;20040;-30
2022/08/24 10:58:58;;;;;;;11.63;6.60;;;;;;;30.91;53.85;99662.53;5047635;28;20857;-30
2022/08/24 11:01:36;;;;;;;11.38;8.13;;;;;;;30.60;52.57;99650.53;5047544;28;20090;-32
2022/08/24 11:04:11;;;;;;;10.70;5.38;;;;;;;30.94;53.03;99646.06;5047404;28;20082;-32
2022/08/24 11:06:43;;;;;;;11.73;5.93;;;;;;;31.01;52.83;99642.63;5047482;28;20409;-31
2022/08/24 11:09:13;;;;;;;12.80;6.63;;;;;;;30.48;52.29;99643.22;5065858;28;20040;-31
2022/08/24 11:11:47;;;;;;;10.65;5.45;;;;;;;30.34;53.10;99638.25;5065675;28;20036;-30
2022/08/24 11:14:27;;;;;;;11.60;5.47;;;;;;;30.87;52.42;99643.16;5065536;28;20039;-36
2022/08/24 11:17:13;;;;;;;11.95;5.65;;;;;;;31.00;50.93;99646.56;5065563;28;20032;-32
2022/08/24 11:19:39;;;;;;;11.45;5.70;;;;;;;31.24;51.37;99623.34;5065686;28;20415;-29
2022/08/24 11:22:26;;;;;;;9.93;5.07;;;;;;;31.97;47.86;99646.09;5065116;28;20033;-33
2022/08/24 11:24:54;;;;;;;13.77;5.68;;;;;;;31.92;49.76;99629.88;5065507;28;20029;-37
2022/08/24 11:27:29;;;;;;;8.65;5.40;;;;;;;31.87;49.36;99638.47;5047283;28;20067;-35
2022/08/24 11:29:58;;;;;;;11.65;5.68;;;;;;;32.15;52.29;99642.81;5065380;28;20466;-35
2022/08/24 11:32:41;;;;;;;13.95;5.75;;;;;;;32.62;52.11;99638.63;5047175;28;20032;-30
2022/08/24 11:35:22;;;;;;;10.95;5.30;;;;;;;32.96;46.27;99644.88;5047403;28;20028;-32
2022/08/24 11:37:50;;;;;;;12.85;5.60;;;;;;;32.70;47.96;99651.34;5065204;28;20024;-34
2022/08/24 11:40:18;;;;;;;10.52;4.93;;;;;;;32.27;49.02;99639.78;5046149;28;20037;-34
2022/08/24 11:43:07;;;;;;;12.77;5.45;;;;;;;32.28;46.50;99652.41;5045142;28;20029;-35
2022/08/24 11:45:43;;;;;;;12.70;5.30;;;;;;;31.91;47.52;99647.56;5065235;28;20036;-35
2022/08/24 11:48:30;;;;;;;12.98;5.32;;;;;;;31.94;48.86;99655.13;5046804;28;20056;-32